Time;durP1;ratioP1;P1;durP2;ratioP2;P2;SDS_P1;SDS_P2;PMS_P1;PMS_P2;Temp;Humidity;BMP_temperature;BMP_pressure;BME280_temperature;BME280_humidity;BME280_pressure;Samples;Min_cycle;Max_cycle;Signal;HPM_P1;HPM_P2
2022/03/12 00:00:13;;;;;;;22.60;21.70;;;19.40;39.40;;;;;;5032613;28;20485;-49
2022/03/12 00:02:40;;;;;;;23.17;22.17;;;19.40;39.40;;;;;;5031402;28;20507;-44
2022/03/12 00:05:09;;;;;;;22.73;21.83;;;19.30;39.30;;;;;;5032294;28;20446;-44
2022/03/12 00:07:37;;;;;;;23.10;22.10;;;19.30;39.40;;;;;;5032274;28;20540;-45
2022/03/12 00:10:07;;;;;;;23.13;22.23;;;19.30;39.40;;;;;;5031923;28;20982;-44
2022/03/12 00:12:36;;;;;;;23.10;22.10;;;19.30;39.40;;;;;;5032097;28;20951;-45
2022/03/12 00:15:09;;;;;;;24.00;23.00;;;19.30;39.30;;;;;;5031890;28;20554;-44
2022/03/12 00:17:36;;;;;;;23.47;22.53;;;19.30;39.40;;;;;;5032096;28;20446;-45
2022/03/12 00:20:12;;;;;;;23.60;22.60;;;19.30;39.40;;;;;;5031795;28;20476;-45
2022/03/12 00:22:41;;;;;;;23.37;22.37;;;19.30;39.40;;;;;;5032037;28;20491;-44
2022/03/12 00:25:10;;;;;;;23.33;22.43;;;19.20;39.40;;;;;;5031731;28;20457;-47
2022/03/12 00:27:39;;;;;;;22.93;21.93;;;19.20;39.40;;;;;;5032005;28;20552;-44
2022/03/12 00:30:07;;;;;;;23.30;22.40;;;19.20;39.40;;;;;;5031762;28;20531;-47
2022/03/12 00:32:35;;;;;;;23.37;22.47;;;19.20;39.50;;;;;;5031875;28;20445;-45
2022/03/12 00:35:02;;;;;;;22.90;22.00;;;19.20;39.50;;;;;;5031591;28;20488;-44
2022/03/12 00:37:29;;;;;;;23.70;22.80;;;19.20;39.50;;;;;;5031820;28;20918;-46
2022/03/12 00:39:56;;;;;;;24.97;23.97;;;19.20;39.50;;;;;;5031415;28;20469;-51
2022/03/12 00:42:24;;;;;;;23.90;22.90;;;19.20;39.50;;;;;;5031746;28;20453;-45
2022/03/12 00:44:51;;;;;;;23.33;22.37;;;19.10;39.40;;;;;;5031389;28;20450;-47
2022/03/12 00:47:18;;;;;;;23.80;22.73;;;19.10;39.50;;;;;;5031717;28;20453;-52
2022/03/12 00:49:45;;;;;;;24.40;23.40;;;19.10;39.50;;;;;;5031409;28;20477;-49
2022/03/12 00:52:12;;;;;;;22.97;22.07;;;19.10;39.50;;;;;;5031474;28;20445;-47
2022/03/12 00:54:39;;;;;;;24.03;23.07;;;19.10;39.50;;;;;;5031585;28;20485;-45
2022/03/12 00:57:05;;;;;;;23.60;22.67;;;19.10;39.50;;;;;;5031584;28;20446;-45
2022/03/12 00:59:33;;;;;;;22.80;21.80;;;19.10;39.50;;;;;;5031122;28;20998;-44
2022/03/12 01:02:00;;;;;;;22.63;21.80;;;19.10;39.50;;;;;;5031246;28;20807;-45
2022/03/12 01:04:27;;;;;;;23.60;22.67;;;19.10;39.50;;;;;;5031475;28;20453;-45
2022/03/12 01:06:54;;;;;;;23.20;22.30;;;19.10;39.50;;;;;;5031482;28;20441;-44
2022/03/12 01:09:20;;;;;;;24.37;23.27;;;19.00;39.40;;;;;;5031211;28;20464;-45
2022/03/12 01:11:47;;;;;;;22.80;21.90;;;19.00;39.50;;;;;;5031307;28;20986;-47
2022/03/12 01:14:15;;;;;;;23.80;22.80;;;19.00;39.50;;;;;;5035263;28;20481;-46
2022/03/12 01:16:43;;;;;;;22.77;21.87;;;19.00;39.50;;;;;;5035477;28;20484;-44
2022/03/12 01:19:10;;;;;;;24.93;23.93;;;19.00;39.50;;;;;;5035146;28;20460;-53
2022/03/12 01:21:37;;;;;;;24.17;23.17;;;19.00;39.50;;;;;;5035135;28;21160;-44
2022/03/12 01:24:04;;;;;;;23.80;22.90;;;19.00;39.50;;;;;;5035289;28;20446;-44
2022/03/12 01:26:34;;;;;;;23.67;22.77;;;18.90;39.40;;;;;;5035379;28;20804;-45
2022/03/12 01:29:01;;;;;;;23.80;22.80;;;18.90;39.50;;;;;;5034876;28;20496;-44
2022/03/12 01:31:28;;;;;;;23.50;22.60;;;19.00;39.60;;;;;;5034871;28;20935;-45
2022/03/12 01:33:56;;;;;;;23.30;22.40;;;18.90;39.50;;;;;;5035094;28;20485;-50
2022/03/12 01:36:22;;;;;;;24.30;23.30;;;18.90;39.50;;;;;;5035138;28;20962;-46
2022/03/12 01:38:51;;;;;;;25.30;24.20;;;18.90;39.60;;;;;;5034830;28;20448;-47
2022/03/12 01:41:22;;;;;;;24.27;23.37;;;18.80;39.50;;;;;;5035070;28;20449;-44
2022/03/12 01:43:49;;;;;;;24.60;23.60;;;18.90;39.60;;;;;;5015157;28;20808;-44
2022/03/12 01:46:18;;;;;;;24.30;23.30;;;18.80;39.50;;;;;;5015156;28;20855;-50
2022/03/12 01:48:47;;;;;;;24.47;23.47;;;18.80;39.50;;;;;;5014879;28;20482;-44
2022/03/12 01:51:16;;;;;;;23.17;22.27;;;18.80;39.60;;;;;;5015038;28;20454;-45
2022/03/12 01:53:44;;;;;;;24.17;23.17;;;18.80;39.60;;;;;;5034041;28;20469;-45
2022/03/12 01:56:10;;;;;;;24.07;23.17;;;18.80;39.60;;;;;;5034780;28;20781;-44
2022/03/12 01:58:37;;;;;;;23.77;22.80;;;18.80;39.60;;;;;;5034187;28;20452;-44
2022/03/12 02:01:06;;;;;;;24.40;23.40;;;18.80;39.70;;;;;;5034612;28;20939;-45
2022/03/12 02:03:32;;;;;;;24.03;23.13;;;18.70;39.70;;;;;;5034340;28;20947;-43
2022/03/12 02:06:00;;;;;;;24.33;23.37;;;18.70;39.70;;;;;;5034505;28;20445;-45
2022/03/12 02:08:29;;;;;;;24.77;23.77;;;18.70;39.70;;;;;;5034312;28;20938;-43
2022/03/12 02:10:58;;;;;;;24.60;23.60;;;18.70;39.70;;;;;;5034193;28;20850;-47
2022/03/12 02:13:26;;;;;;;23.87;22.87;;;18.70;39.70;;;;;;5034377;28;20491;-45
2022/03/12 02:16:05;;;;;;;23.70;22.80;;;18.70;39.80;;;;;;5034409;28;20449;-44
2022/03/12 02:18:32;;;;;;;24.27;23.27;;;18.70;39.80;;;;;;5034208;28;20449;-44
2022/03/12 02:20:59;;;;;;;24.00;23.00;;;18.70;39.70;;;;;;5034023;28;20452;-47
2022/03/12 02:23:27;;;;;;;24.03;23.13;;;18.70;39.70;;;;;;5034258;28;20457;-46
2022/03/12 02:26:03;;;;;;;22.77;21.87;;;18.70;39.80;;;;;;5033252;28;20449;-45
2022/03/12 02:28:29;;;;;;;24.27;23.23;;;18.70;39.80;;;;;;5033928;28;20448;-44
2022/03/12 02:30:57;;;;;;;25.03;24.03;;;18.70;39.80;;;;;;5033835;28;20446;-47
2022/03/12 02:33:28;;;;;;;24.40;23.40;;;18.60;39.80;;;;;;5034038;28;20484;-45
2022/03/12 02:35:56;;;;;;;22.10;21.30;;;18.60;40.30;;;;;;5034035;28;20441;-45
2022/03/12 02:38:24;;;;;;;22.47;21.57;;;18.60;39.70;;;;;;5033922;28;20451;-48
2022/03/12 02:40:51;;;;;;;21.93;21.03;;;18.60;39.80;;;;;;5033526;28;20480;-45
2022/03/12 02:43:25;;;;;;;22.33;21.43;;;18.60;39.80;;;;;;5033835;28;20826;-50
2022/03/12 02:45:53;;;;;;;23.13;22.23;;;18.60;39.80;;;;;;5033973;28;20444;-44
2022/03/12 02:48:20;;;;;;;23.23;22.30;;;18.60;39.80;;;;;;5033500;28;20978;-44
2022/03/12 02:50:47;;;;;;;22.47;21.57;;;18.50;39.70;;;;;;5033373;28;20472;-45
2022/03/12 02:53:14;;;;;;;22.93;21.97;;;18.60;39.90;;;;;;5033770;28;20449;-45
2022/03/12 02:55:41;;;;;;;22.90;22.00;;;18.50;39.80;;;;;;5033471;28;20580;-44
2022/03/12 02:58:10;;;;;;;23.13;22.23;;;18.50;39.80;;;;;;5033389;28;20962;-44
2022/03/12 03:00:38;;;;;;;23.20;22.30;;;18.50;39.80;;;;;;5033240;28;20480;-45
2022/03/12 03:03:06;;;;;;;24.20;23.20;;;18.50;39.80;;;;;;5033452;28;20478;-45
2022/03/12 03:05:45;;;;;;;23.67;22.70;;;18.50;39.90;;;;;;5033492;28;20548;-45
2022/03/12 03:08:13;;;;;;;23.70;22.70;;;18.40;39.90;;;;;;5033336;28;20445;-47
2022/03/12 03:10:41;;;;;;;23.87;22.97;;;18.40;39.90;;;;;;5032820;28;20889;-45
2022/03/12 03:13:32;;;;;;;24.87;23.87;;;18.40;39.90;;;;;;5033342;28;20452;-45
2022/03/12 03:16:04;;;;;;;24.43;23.43;;;18.40;39.90;;;;;;5033351;28;20850;-45
2022/03/12 03:18:33;;;;;;;24.03;22.93;;;18.40;40.00;;;;;;5032761;28;20815;-44
2022/03/12 03:21:01;;;;;;;24.60;23.60;;;18.40;40.00;;;;;;5033074;28;20452;-45
2022/03/12 03:23:29;;;;;;;24.40;23.40;;;18.40;40.10;;;;;;5033049;28;20445;-45
2022/03/12 03:25:56;;;;;;;23.73;22.73;;;18.40;40.00;;;;;;5032949;28;20448;-47
2022/03/12 03:28:23;;;;;;;24.40;23.40;;;18.40;40.00;;;;;;5032686;28;20450;-45
2022/03/12 03:30:50;;;;;;;24.40;23.50;;;18.40;40.00;;;;;;5032837;28;20987;-45
2022/03/12 03:33:20;;;;;;;24.83;23.77;;;18.30;40.00;;;;;;5032894;28;20969;-45
2022/03/12 03:35:47;;;;;;;25.23;24.23;;;18.30;40.00;;;;;;5032155;28;20481;-48
2022/03/12 03:38:14;;;;;;;26.40;25.30;;;18.30;40.00;;;;;;5032329;28;20458;-45
2022/03/12 03:40:42;;;;;;;24.10;23.20;;;18.30;40.00;;;;;;5032501;28;20469;-44
2022/03/12 03:43:12;;;;;;;26.77;25.70;;;18.30;40.00;;;;;;5032683;28;20935;-45
2022/03/12 03:45:39;;;;;;;25.17;24.17;;;18.30;40.10;;;;;;5032596;28;20935;-45
2022/03/12 03:48:10;;;;;;;24.27;23.37;;;18.20;40.10;;;;;;5032199;28;20448;-44
2022/03/12 03:50:38;;;;;;;24.70;23.80;;;18.30;40.10;;;;;;5032662;28;20632;-45
2022/03/12 03:53:05;;;;;;;24.70;23.80;;;18.20;40.10;;;;;;5032404;28;20455;-44
2022/03/12 03:55:33;;;;;;;24.10;23.10;;;18.30;40.20;;;;;;5032370;28;20539;-44
2022/03/12 03:58:00;;;;;;;24.93;23.93;;;18.20;40.10;;;;;;5031923;28;20460;-44
2022/03/12 04:00:28;;;;;;;24.87;23.90;;;18.20;40.20;;;;;;5032273;28;20488;-45
2022/03/12 04:03:02;;;;;;;24.70;23.80;;;18.20;40.20;;;;;;5032479;28;20453;-44
2022/03/12 04:05:29;;;;;;;24.20;23.30;;;18.20;40.20;;;;;;5032443;28;20529;-45
2022/03/12 04:07:58;;;;;;;24.80;23.80;;;18.20;40.20;;;;;;5031900;28;20449;-44
2022/03/12 04:10:25;;;;;;;26.20;24.80;;;18.20;40.20;;;;;;5032087;28;20523;-47
2022/03/12 04:12:52;;;;;;;26.00;25.00;;;18.20;40.20;;;;;;5032217;28;20496;-45
2022/03/12 04:15:19;;;;;;;25.30;24.20;;;18.20;40.20;;;;;;5032041;28;20500;-44
2022/03/12 04:17:48;;;;;;;23.77;22.87;;;18.20;40.10;;;;;;5031796;28;20863;-45
2022/03/12 04:20:18;;;;;;;24.47;23.47;;;18.20;40.20;;;;;;5032070;28;20902;-46
2022/03/12 04:22:45;;;;;;;25.97;24.97;;;18.20;40.20;;;;;;5031812;28;20456;-44
2022/03/12 04:25:13;;;;;;;24.43;23.43;;;18.20;40.20;;;;;;5031910;28;20448;-45
2022/03/12 04:27:42;;;;;;;23.90;23.00;;;18.10;40.20;;;;;;5031000;28;20793;-43
2022/03/12 04:30:10;;;;;;;25.37;24.20;;;18.10;40.20;;;;;;5031647;28;20473;-45
2022/03/12 04:32:37;;;;;;;25.00;24.00;;;18.10;40.20;;;;;;5031936;28;20495;-45
2022/03/12 04:35:05;;;;;;;25.27;24.30;;;18.10;40.20;;;;;;5032036;28;20926;-44
2022/03/12 04:37:33;;;;;;;24.97;23.90;;;18.10;40.20;;;;;;5031628;28;20449;-46
2022/03/12 04:39:59;;;;;;;24.80;23.80;;;18.10;40.20;;;;;;5031484;28;20981;-45
2022/03/12 04:42:28;;;;;;;25.20;24.20;;;18.10;40.30;;;;;;5031862;28;20763;-45
2022/03/12 04:44:54;;;;;;;24.60;23.60;;;18.10;40.30;;;;;;5031792;28;20907;-45
2022/03/12 04:47:21;;;;;;;24.83;23.73;;;18.10;40.30;;;;;;5031186;28;20803;-45
2022/03/12 04:49:48;;;;;;;24.60;23.60;;;18.10;40.30;;;;;;5031515;28;20461;-44
2022/03/12 04:52:15;;;;;;;25.10;24.20;;;18.00;40.20;;;;;;5031815;28;20452;-44
2022/03/12 04:54:42;;;;;;;25.10;24.10;;;18.00;40.30;;;;;;5031601;28;20480;-45
2022/03/12 04:57:08;;;;;;;25.77;24.67;;;18.00;40.30;;;;;;5031361;28;20445;-48
2022/03/12 04:59:36;;;;;;;27.03;25.93;;;18.00;40.30;;;;;;5031120;28;20477;-44
2022/03/12 05:02:04;;;;;;;26.37;25.27;;;18.00;40.30;;;;;;5031654;28;20445;-44
2022/03/12 05:04:31;;;;;;;26.37;25.37;;;18.00;40.30;;;;;;5031563;28;20441;-49
2022/03/12 05:06:57;;;;;;;27.70;26.60;;;18.00;40.30;;;;;;5031284;28;20507;-45
2022/03/12 05:09:24;;;;;;;27.27;26.27;;;18.00;40.30;;;;;;5031128;28;20472;-44
2022/03/12 05:11:51;;;;;;;26.13;25.13;;;18.00;40.40;;;;;;5031487;28;20452;-45
2022/03/12 05:14:18;;;;;;;27.37;26.20;;;18.00;40.40;;;;;;5031248;28;21046;-45
2022/03/12 05:16:46;;;;;;;27.20;26.20;;;17.90;40.30;;;;;;5031046;28;20460;-46
2022/03/12 05:19:14;;;;;;;27.17;26.10;;;17.90;40.30;;;;;;5030915;28;20911;-45
2022/03/12 05:21:41;;;;;;;27.20;26.20;;;17.90;40.30;;;;;;5031386;28;20453;-45
2022/03/12 05:24:10;;;;;;;27.23;26.20;;;17.90;40.40;;;;;;5031548;28;20448;-45
2022/03/12 05:26:37;;;;;;;27.07;25.70;;;17.90;40.50;;;;;;5031196;28;20452;-45
2022/03/12 05:29:04;;;;;;;27.30;26.20;;;17.90;40.50;;;;;;5030994;28;20461;-44
2022/03/12 05:31:30;;;;;;;28.93;27.63;;;17.90;40.40;;;;;;5031290;28;20490;-45
2022/03/12 05:33:58;;;;;;;27.57;26.37;;;17.90;40.40;;;;;;5031276;28;20445;-45
2022/03/12 05:36:25;;;;;;;26.97;25.87;;;17.90;40.50;;;;;;5030581;28;20488;-45
2022/03/12 05:38:52;;;;;;;27.17;26.07;;;17.80;40.40;;;;;;5030585;28;20495;-44
2022/03/12 05:41:19;;;;;;;26.30;25.20;;;17.80;40.40;;;;;;5031152;28;20520;-45
2022/03/12 05:43:46;;;;;;;27.80;26.50;;;17.80;40.50;;;;;;5031164;28;20452;-48
2022/03/12 05:46:15;;;;;;;27.60;26.50;;;17.80;40.50;;;;;;5030499;28;20522;-45
2022/03/12 06:00:26;;;;;;;29.13;28.03;;;17.80;40.10;;;;;;5108961;27;20972;-49
2022/03/12 06:02:55;;;;;;;27.70;26.60;;;19.60;40.80;;;;;;5089632;28;20438;-49
2022/03/12 06:05:24;;;;;;;25.83;24.83;;;19.90;40.40;;;;;;5089543;28;20504;-47
2022/03/12 06:07:51;;;;;;;28.10;26.90;;;20.30;39.80;;;;;;5089251;28;20446;-48
2022/03/12 06:10:20;;;;;;;27.37;26.37;;;20.40;39.20;;;;;;5088870;28;20829;-47
2022/03/12 06:12:48;;;;;;;28.20;26.80;;;20.40;38.80;;;;;;5089436;28;20530;-51
2022/03/12 06:15:17;;;;;;;46.37;37.90;;;20.50;38.80;;;;;;5088801;28;20474;-49
2022/03/12 06:17:47;;;;;;;51.57;45.87;;;20.60;38.70;;;;;;5088893;28;20805;-47
2022/03/12 06:20:15;;;;;;;73.37;61.97;;;20.70;39.00;;;;;;5088371;28;20520;-49
2022/03/12 06:22:43;;;;;;;118.80;83.37;;;20.70;39.40;;;;;;5088660;28;20808;-49
2022/03/12 06:25:11;;;;;;;147.50;100.87;;;20.80;39.50;;;;;;5088583;28;20533;-48
2022/03/12 06:27:39;;;;;;;148.13;103.87;;;20.90;39.60;;;;;;5088635;28;20442;-49
2022/03/12 06:30:09;;;;;;;148.70;109.97;;;21.00;39.50;;;;;;5088206;28;20544;-47
2022/03/12 06:32:36;;;;;;;175.07;118.67;;;21.10;39.50;;;;;;5088576;28;20447;-49
2022/03/12 06:35:06;;;;;;;168.23;114.57;;;21.10;39.50;;;;;;5088361;28;20930;-47
2022/03/12 06:37:33;;;;;;;156.00;108.27;;;21.20;39.40;;;;;;5088386;28;20457;-47
2022/03/12 06:40:00;;;;;;;135.10;102.13;;;21.30;39.20;;;;;;5088061;28;20466;-49
2022/03/12 06:42:32;;;;;;;130.13;94.60;;;21.30;38.90;;;;;;5088387;28;20450;-49
2022/03/12 06:44:59;;;;;;;150.57;97.50;;;21.40;38.80;;;;;;5088583;28;20447;-47
2022/03/12 06:47:29;;;;;;;145.53;97.90;;;21.70;38.60;;;;;;5088089;28;20446;-53
2022/03/12 06:49:56;;;;;;;115.23;93.30;;;21.80;38.20;;;;;;5086699;28;20561;-51
2022/03/12 06:52:25;;;;;;;124.50;96.23;;;21.90;38.20;;;;;;5088161;28;20545;-51
2022/03/12 06:54:52;;;;;;;121.70;97.07;;;21.90;38.10;;;;;;5088100;28;20453;-50
2022/03/12 06:57:20;;;;;;;97.47;84.20;;;21.90;38.00;;;;;;5088012;28;20869;-48
2022/03/12 06:59:48;;;;;;;108.17;85.17;;;21.80;37.90;;;;;;5082430;28;20503;-52
2022/03/12 07:02:15;;;;;;;105.77;86.80;;;21.90;37.90;;;;;;5075243;28;20909;-52
2022/03/12 07:04:42;;;;;;;106.30;85.43;;;22.00;37.90;;;;;;5074693;28;20811;-50
2022/03/12 07:07:09;;;;;;;109.43;82.00;;;22.20;37.90;;;;;;5074706;28;20806;-51
2022/03/12 07:09:38;;;;;;;106.83;84.90;;;22.40;37.80;;;;;;5074549;28;21033;-51
2022/03/12 07:12:06;;;;;;;109.47;80.20;;;22.40;37.50;;;;;;5074403;28;20443;-48
2022/03/12 07:14:33;;;;;;;111.87;83.13;;;22.60;37.10;;;;;;5074050;28;20482;-51
2022/03/12 07:17:00;;;;;;;94.83;73.53;;;22.60;37.00;;;;;;5074151;28;20446;-47
2022/03/12 07:19:27;;;;;;;93.03;77.70;;;22.70;36.90;;;;;;5073329;28;20440;-50
2022/03/12 07:21:54;;;;;;;89.50;72.50;;;22.70;36.80;;;;;;5073999;28;20440;-49
2022/03/12 07:24:21;;;;;;;94.70;74.10;;;22.70;36.70;;;;;;5074003;28;20436;-51
2022/03/12 07:26:49;;;;;;;89.67;73.33;;;22.80;36.70;;;;;;5073938;28;20445;-49
2022/03/12 07:29:16;;;;;;;83.32;71.70;;;22.80;36.60;;;;;;5075864;28;20428;-64
2022/03/12 07:31:42;;;;;;;77.87;69.70;;;22.90;37.50;;;;;;5078719;28;20221;-45
2022/03/12 07:34:10;;;;;;;92.77;71.03;;;22.90;36.70;;;;;;5079415;28;20826;-48
2022/03/12 07:36:37;;;;;;;82.93;70.50;;;22.90;36.50;;;;;;5079007;28;20450;-48
2022/03/12 07:39:05;;;;;;;80.63;71.73;;;23.00;36.50;;;;;;5081485;28;20838;-45
2022/03/12 07:41:32;;;;;;;71.33;63.83;;;23.20;36.50;;;;;;5083840;28;20962;-49
2022/03/12 07:44:00;;;;;;;72.70;65.10;;;23.30;36.30;;;;;;5078012;28;20452;-51
2022/03/12 07:46:27;;;;;;;68.37;61.03;;;23.40;36.10;;;;;;5075832;28;20443;-50
2022/03/12 07:48:54;;;;;;;74.43;65.20;;;23.50;35.90;;;;;;5073275;28;20479;-49
2022/03/12 07:51:21;;;;;;;72.83;65.00;;;23.60;35.80;;;;;;5073310;28;20474;-48
2022/03/12 07:53:48;;;;;;;72.03;64.13;;;23.60;35.70;;;;;;5072696;28;20941;-47
2022/03/12 07:56:17;;;;;;;69.70;62.77;;;23.60;35.60;;;;;;5073696;28;20189;-50
2022/03/12 07:58:43;;;;;;;70.40;62.70;;;23.70;35.40;;;;;;5077038;28;20461;-50
2022/03/12 08:01:12;;;;;;;69.87;62.47;;;23.70;35.30;;;;;;5072295;28;20213;-49
2022/03/12 08:03:39;;;;;;;68.40;61.70;;;23.80;35.30;;;;;;5073707;28;20541;-49
2022/03/12 08:06:07;;;;;;;66.82;59.67;;;23.80;35.40;;;;;;5072110;28;20442;-51
2022/03/12 08:08:34;;;;;;;71.70;64.13;;;23.80;35.30;;;;;;5073201;28;20221;-51
2022/03/12 08:13:49;;;;;;;64.10;57.73;;;23.80;35.30;;;;;;5073923;28;20419;-49
2022/03/12 08:16:17;;;;;;;63.00;56.80;;;23.80;35.30;;;;;;5073857;28;20435;-49
2022/03/12 08:18:44;;;;;;;63.57;57.07;;;23.70;35.30;;;;;;5072979;28;20443;-52
2022/03/12 08:21:12;;;;;;;61.63;55.53;;;23.80;35.50;;;;;;5072595;28;20475;-48
2022/03/12 08:23:40;;;;;;;66.13;59.33;;;23.90;35.60;;;;;;5072786;28;20479;-52
2022/03/12 08:26:08;;;;;;;61.77;55.63;;;24.10;35.40;;;;;;5072503;28;20475;-49
2022/03/12 08:28:35;;;;;;;63.23;57.30;;;24.10;35.00;;;;;;5072435;28;20443;-50
2022/03/12 08:31:02;;;;;;;62.03;56.33;;;24.10;34.90;;;;;;5071732;28;20477;-51
2022/03/12 08:33:31;;;;;;;60.60;55.13;;;24.10;34.80;;;;;;5072599;28;20452;-53
2022/03/12 08:35:57;;;;;;;55.50;50.53;;;24.10;34.70;;;;;;5072544;28;20444;-50
2022/03/12 08:38:24;;;;;;;59.33;53.80;;;24.10;34.70;;;;;;5072578;28;20439;-47
2022/03/12 08:40:52;;;;;;;57.60;51.97;;;24.20;34.80;;;;;;5071716;28;20899;-50
2022/03/12 08:43:19;;;;;;;60.97;55.40;;;24.30;35.00;;;;;;5072330;28;20450;-50
2022/03/12 08:45:46;;;;;;;58.07;52.90;;;24.40;34.90;;;;;;5072313;28;20450;-50
2022/03/12 08:48:13;;;;;;;52.50;47.90;;;24.50;34.90;;;;;;5072425;28;20443;-53
2022/03/12 08:50:41;;;;;;;54.20;49.37;;;24.50;34.70;;;;;;5071582;28;21006;-50
2022/03/12 08:53:08;;;;;;;51.30;47.13;;;24.50;34.50;;;;;;5072851;28;20946;-49
2022/03/12 08:55:35;;;;;;;55.40;51.03;;;24.50;34.50;;;;;;5072626;28;20792;-48
2022/03/12 08:58:01;;;;;;;53.47;49.10;;;24.50;34.60;;;;;;5071789;28;20452;-50
2022/03/12 09:00:28;;;;;;;56.77;51.77;;;24.50;34.60;;;;;;5071838;28;20455;-52
2022/03/12 09:02:55;;;;;;;53.40;48.90;;;24.50;34.60;;;;;;5071977;28;20462;-51
2022/03/12 09:05:22;;;;;;;50.17;46.20;;;24.60;34.70;;;;;;5072094;28;20533;-49
2022/03/12 09:07:51;;;;;;;52.93;48.23;;;24.60;34.60;;;;;;5071872;28;20444;-50
2022/03/12 09:10:19;;;;;;;47.93;43.90;;;24.60;34.70;;;;;;5071527;28;20518;-49
2022/03/12 09:12:46;;;;;;;48.70;44.27;;;24.70;34.80;;;;;;5071988;28;20459;-49
2022/03/12 09:15:13;;;;;;;45.25;41.55;;;24.80;34.70;;;;;;5071590;28;20446;-51
2022/03/12 09:17:40;;;;;;;46.87;42.97;;;24.90;34.60;;;;;;5071907;28;20204;-50
2022/03/12 09:20:09;;;;;;;47.53;43.80;;;25.00;34.30;;;;;;5071323;28;20486;-54
2022/03/12 09:22:36;;;;;;;44.63;41.33;;;25.00;34.00;;;;;;5071423;28;20447;-50
2022/03/12 09:25:08;;;;;;;45.60;41.80;;;25.10;33.90;;;;;;5071922;28;20857;-52
2022/03/12 09:27:35;;;;;;;46.33;42.73;;;25.10;33.80;;;;;;5071360;28;20448;-51
2022/03/12 09:30:02;;;;;;;45.27;41.80;;;25.10;33.80;;;;;;5070959;28;20989;-48
2022/03/12 09:32:29;;;;;;;44.20;40.80;;;25.10;33.90;;;;;;5071716;28;20451;-51
2022/03/12 09:34:55;;;;;;;45.43;41.83;;;25.20;33.90;;;;;;5071619;28;20451;-50
2022/03/12 09:37:22;;;;;;;45.37;42.00;;;25.20;33.90;;;;;;5071378;28;20447;-50
2022/03/12 09:39:49;;;;;;;44.07;40.70;;;25.20;33.80;;;;;;5071444;28;20822;-49
2022/03/12 09:42:17;;;;;;;43.73;40.57;;;25.30;33.70;;;;;;5071614;28;20964;-50
2022/03/12 09:44:44;;;;;;;45.13;41.90;;;25.30;33.80;;;;;;5071442;28;20452;-49
2022/03/12 09:47:12;;;;;;;44.40;41.10;;;25.50;33.90;;;;;;5071329;28;20806;-50
2022/03/12 09:49:39;;;;;;;43.07;39.97;;;25.60;33.70;;;;;;5071310;28;20822;-50
2022/03/12 09:52:06;;;;;;;46.00;42.77;;;25.70;33.70;;;;;;5072092;28;20479;-52
2022/03/12 09:54:33;;;;;;;45.10;42.20;;;25.70;33.40;;;;;;5072058;28;20447;-51
2022/03/12 09:57:00;;;;;;;45.77;42.17;;;25.70;33.40;;;;;;5072223;28;20444;-51
2022/03/12 09:59:28;;;;;;;44.10;41.00;;;25.60;33.40;;;;;;5070849;28;20455;-51
2022/03/12 10:01:55;;;;;;;44.00;41.20;;;25.70;33.60;;;;;;5071476;28;20451;-53
2022/03/12 10:04:22;;;;;;;42.07;39.10;;;25.70;33.60;;;;;;5071326;28;20462;-53
2022/03/12 10:06:49;;;;;;;42.13;39.50;;;25.70;33.50;;;;;;5071194;28;20452;-53
2022/03/12 10:09:16;;;;;;;42.80;39.80;;;25.70;33.50;;;;;;5071099;28;20475;-49
2022/03/12 10:11:45;;;;;;;44.17;41.27;;;25.70;33.40;;;;;;5075516;28;20467;-49
2022/03/12 10:14:12;;;;;;;42.40;39.47;;;25.70;33.60;;;;;;5078679;28;20942;-51
2022/03/12 10:16:40;;;;;;;43.07;40.37;;;25.70;33.70;;;;;;5073253;28;20451;-49
2022/03/12 10:19:07;;;;;;;41.30;38.80;;;25.80;33.60;;;;;;5072734;28;20466;-49
2022/03/12 10:21:35;;;;;;;42.67;40.00;;;25.80;33.00;;;;;;5073212;28;20885;-50
2022/03/12 10:24:02;;;;;;;41.47;38.83;;;25.90;33.00;;;;;;5071101;28;20443;-50
2022/03/12 10:26:29;;;;;;;40.80;38.40;;;25.90;33.30;;;;;;5071276;28;20505;-55
2022/03/12 10:28:56;;;;;;;41.97;39.60;;;25.90;33.40;;;;;;5071323;28;20448;-50
2022/03/12 10:31:23;;;;;;;41.40;38.90;;;25.90;33.40;;;;;;5070960;28;20452;-49
2022/03/12 10:33:51;;;;;;;39.67;37.30;;;25.90;33.40;;;;;;5070715;28;20530;-53
2022/03/12 10:36:19;;;;;;;42.67;40.07;;;25.90;33.40;;;;;;5073172;28;20443;-50
2022/03/12 10:38:47;;;;;;;41.10;38.70;;;25.90;33.40;;;;;;5075382;28;20826;-49
2022/03/12 10:41:15;;;;;;;41.70;39.20;;;25.90;33.40;;;;;;5075273;28;20470;-49
2022/03/12 10:43:47;;;;;;;40.93;38.33;;;26.00;33.50;;;;;;5076167;28;20443;-47
2022/03/12 10:46:20;;;;;;;41.63;39.40;;;26.00;33.40;;;;;;5075444;28;20442;-47
2022/03/12 10:48:48;;;;;;;41.23;38.87;;;26.00;33.30;;;;;;5075329;28;20443;-50
2022/03/12 10:51:19;;;;;;;38.83;36.57;;;26.10;33.40;;;;;;5074814;28;20490;-50
2022/03/12 10:53:47;;;;;;;36.87;34.57;;;26.30;33.40;;;;;;5074800;28;20443;-51
2022/03/12 10:56:14;;;;;;;38.77;36.67;;;26.40;33.10;;;;;;5075575;28;20512;-49
2022/03/12 10:58:41;;;;;;;40.03;37.60;;;26.50;33.00;;;;;;5075667;28;20461;-51
2022/03/12 11:01:08;;;;;;;37.30;34.97;;;26.60;32.80;;;;;;5075869;28;20467;-51
2022/03/12 11:03:37;;;;;;;35.57;33.77;;;26.60;32.60;;;;;;5075405;28;20993;-47
2022/03/12 11:06:06;;;;;;;38.60;36.30;;;26.70;32.80;;;;;;5075262;28;20447;-49
2022/03/12 11:08:36;;;;;;;36.27;33.83;;;26.70;33.50;;;;;;5077375;28;20440;-51
2022/03/12 11:11:11;;;;;;;35.97;34.00;;;26.60;33.50;;;;;;5076941;28;20479;-52
2022/03/12 11:13:40;;;;;;;33.73;32.03;;;26.70;33.70;;;;;;5079785;28;20648;-47
2022/03/12 11:16:12;;;;;;;36.30;34.43;;;26.80;33.80;;;;;;5078791;28;20938;-47
2022/03/12 11:18:46;;;;;;;34.13;32.33;;;26.90;33.70;;;;;;5077240;28;20515;-49
2022/03/12 11:21:14;;;;;;;34.43;32.73;;;27.10;33.50;;;;;;5076078;28;20826;-49
2022/03/12 11:23:43;;;;;;;34.10;32.47;;;27.10;33.30;;;;;;5075503;28;20926;-52
2022/03/12 11:26:10;;;;;;;33.77;32.07;;;27.10;33.10;;;;;;5074118;28;20444;-50
2022/03/12 11:28:39;;;;;;;33.27;31.73;;;27.10;33.20;;;;;;5074119;28;20474;-53
2022/03/12 11:31:07;;;;;;;33.83;32.33;;;27.20;33.10;;;;;;5073663;28;20483;-49
2022/03/12 11:33:35;;;;;;;33.20;31.80;;;27.20;33.10;;;;;;5074842;28;20447;-51
2022/03/12 11:36:10;;;;;;;32.33;30.90;;;27.20;33.10;;;;;;5076038;28;20450;-50
2022/03/12 11:38:37;;;;;;;32.20;30.60;;;27.10;33.00;;;;;;5076092;28;20447;-51
2022/03/12 11:41:08;;;;;;;33.47;31.87;;;27.10;33.00;;;;;;5075806;28;20950;-53
2022/03/12 11:43:40;;;;;;;29.40;28.10;;;27.10;33.10;;;;;;5076831;28;20860;-49
2022/03/12 11:46:09;;;;;;;33.73;32.33;;;26.90;33.00;;;;;;5080763;28;20206;-48
2022/03/12 11:48:38;;;;;;;33.00;31.60;;;26.70;32.80;;;;;;5079864;28;20456;-50
2022/03/12 11:51:17;;;;;;;32.73;31.33;;;26.50;33.30;;;;;;5083855;28;20859;-51
2022/03/12 11:53:45;;;;;;;33.50;32.10;;;26.20;34.80;;;;;;5080764;28;20535;-53
2022/03/12 11:56:14;;;;;;;33.67;32.10;;;26.00;34.60;;;;;;5078110;28;20459;-49
2022/03/12 11:58:40;;;;;;;33.40;31.90;;;26.00;35.20;;;;;;5073812;28;20458;-51
2022/03/12 12:01:07;;;;;;;31.70;30.40;;;26.10;34.50;;;;;;5073002;28;20981;-51
2022/03/12 12:03:34;;;;;;;33.73;32.33;;;26.10;34.30;;;;;;5073550;28;20443;-50
2022/03/12 12:06:01;;;;;;;33.03;31.63;;;26.10;34.40;;;;;;5074320;28;20974;-53
2022/03/12 12:08:27;;;;;;;33.63;32.13;;;26.30;34.00;;;;;;5074352;28;20455;-50
2022/03/12 12:10:58;;;;;;;32.90;31.50;;;26.50;33.90;;;;;;5074516;28;20574;-51
2022/03/12 12:13:28;;;;;;;34.23;32.90;;;26.40;32.80;;;;;;5073714;28;20473;-47
2022/03/12 12:15:55;;;;;;;34.70;33.20;;;26.40;33.10;;;;;;5073110;28;20447;-47
2022/03/12 12:18:22;;;;;;;33.93;32.53;;;26.60;33.10;;;;;;5073155;28;20938;-47
2022/03/12 12:20:49;;;;;;;33.73;32.33;;;26.80;32.90;;;;;;5071912;28;20815;-46
2022/03/12 12:23:18;;;;;;;34.13;32.63;;;27.10;32.40;;;;;;5072830;28;20446;-46
2022/03/12 12:25:46;;;;;;;33.23;31.83;;;27.50;32.10;;;;;;5072809;28;20448;-46
2022/03/12 12:28:17;;;;;;;32.10;30.77;;;27.40;32.00;;;;;;5072807;28;20443;-46
2022/03/12 12:30:47;;;;;;;32.07;30.77;;;27.40;31.60;;;;;;5072256;28;20800;-48
2022/03/12 12:33:19;;;;;;;34.37;32.70;;;27.10;31.90;;;;;;5072686;28;20447;-47
2022/03/12 12:35:48;;;;;;;34.00;32.60;;;27.10;31.90;;;;;;5072553;28;20447;-48
2022/03/12 12:38:17;;;;;;;34.37;32.90;;;27.00;32.20;;;;;;5072579;28;20447;-46
2022/03/12 12:40:47;;;;;;;34.23;32.83;;;27.40;32.30;;;;;;5072122;28;20471;-46
2022/03/12 12:43:17;;;;;;;32.70;31.40;;;27.80;31.80;;;;;;5072321;28;20447;-48